Altha, Florida
Current Conditions -  °F | °C
As of 6:53 AM on Thursday 30 Oct 2014 (Local Time) from KMAI Reporting Station
Light Rain Light Rain  
Wind Chill: 62°   Ceiling: 3100
Heat Index: 62°   Visibility: 10mi
Dew Point: 48°   Wind: 9mph
Humidity: 60%   Direction: 20°NNE
Pressure: 30.04"   Gusts: NA
Location:  30.57°N, 85.13°W
Report Text: KMAI 301153Z AUTO 02008KT 10SM -RA OVC031 17/09 A3004 RMK AO2 SLP169 P0000 60000 T01670089 10200 20167 53007
Loading
Personal Weather Stations






























Interactive Weather Map New forecast layout! Learn more

10-Day Weather Forecast

Advertisements
Track Severe Weather on mobile